createdAt,value
2023-03-08T00:00:57.821Z,21.40
2023-03-08T00:02:59.165Z,21.48
2023-03-08T00:05:01.889Z,21.53
2023-03-08T00:07:03.294Z,21.57
2023-03-08T00:09:04.782Z,21.64
2023-03-08T00:11:06.119Z,21.68
2023-03-08T00:13:07.522Z,21.67
2023-03-08T00:15:08.889Z,21.70
2023-03-08T00:17:10.236Z,21.71
2023-03-08T00:19:11.558Z,21.71
2023-03-08T00:21:12.938Z,21.67
2023-03-08T00:23:14.322Z,21.66
2023-03-08T00:25:16.591Z,21.63
2023-03-08T00:27:17.945Z,21.65
2023-03-08T00:29:19.346Z,21.62
2023-03-08T00:31:20.759Z,21.59
2023-03-08T00:33:22.093Z,21.54
2023-03-08T00:35:23.466Z,21.49
2023-03-08T00:37:24.817Z,21.45
2023-03-08T00:39:26.139Z,21.44
2023-03-08T00:41:27.549Z,21.42
2023-03-08T00:43:28.918Z,21.38
2023-03-08T00:45:30.248Z,21.36
2023-03-08T00:47:31.601Z,21.35
2023-03-08T00:49:32.964Z,21.32
2023-03-08T00:51:34.367Z,21.30
2023-03-08T00:53:35.722Z,21.30
2023-03-08T00:55:37.112Z,21.28
2023-03-08T00:57:38.436Z,20.57
2023-03-08T00:59:39.815Z,21.27
2023-03-08T01:01:41.156Z,21.26
2023-03-08T01:03:42.552Z,21.27
2023-03-08T01:05:43.926Z,21.28
2023-03-08T01:07:45.275Z,21.27
2023-03-08T01:09:46.612Z,21.31
2023-03-08T01:11:47.942Z,21.33
2023-03-08T01:13:49.301Z,21.36
2023-03-08T01:15:50.677Z,21.39
2023-03-08T01:17:52.014Z,21.41
2023-03-08T01:19:53.426Z,21.40
2023-03-08T01:21:54.796Z,21.39
2023-03-08T01:23:56.150Z,21.41
2023-03-08T01:25:57.525Z,21.44
2023-03-08T01:27:58.853Z,21.46
2023-03-08T01:30:00.187Z,21.51
2023-03-08T01:32:02.193Z,21.54
2023-03-08T01:34:03.614Z,21.58
2023-03-08T01:36:05.066Z,21.63
2023-03-08T01:38:06.466Z,20.88
2023-03-08T01:40:07.852Z,21.78
2023-03-08T01:42:09.232Z,21.80
2023-03-08T01:44:10.608Z,21.81
2023-03-08T01:46:12.185Z,21.73
2023-03-08T01:48:13.516Z,21.68
2023-03-08T01:50:14.901Z,21.61
2023-03-08T01:52:16.222Z,21.65
2023-03-08T01:54:17.553Z,21.69
2023-03-08T01:56:18.883Z,21.64
2023-03-08T01:58:20.257Z,21.60
2023-03-08T02:00:23.077Z,21.59
2023-03-08T02:02:24.953Z,21.59
2023-03-08T02:04:26.838Z,21.55
2023-03-08T02:06:28.369Z,21.51
2023-03-08T02:08:29.682Z,21.50
2023-03-08T02:10:31.138Z,21.47
2023-03-08T02:12:32.472Z,21.44
2023-03-08T02:14:33.800Z,21.43
2023-03-08T02:16:35.136Z,21.40
2023-03-08T02:18:36.468Z,21.33
2023-03-08T02:20:37.840Z,21.29
2023-03-08T02:22:39.203Z,21.25
2023-03-08T02:24:40.553Z,21.25
2023-03-08T02:26:41.891Z,21.24
2023-03-08T02:28:43.264Z,21.26
2023-03-08T02:30:44.585Z,21.30
2023-03-08T02:32:46.059Z,21.33
2023-03-08T02:34:47.456Z,21.34
2023-03-08T02:36:48.813Z,21.34
2023-03-08T02:38:50.232Z,21.35
2023-03-08T02:40:52.914Z,21.36
2023-03-08T02:42:56.134Z,21.41
2023-03-08T02:44:57.536Z,21.45
2023-03-08T02:46:58.888Z,21.53
2023-03-08T02:49:00.266Z,21.55
2023-03-08T02:51:01.597Z,21.61
2023-03-08T02:53:02.957Z,21.66
2023-03-08T02:55:04.309Z,21.69
2023-03-08T02:57:05.656Z,21.74
2023-03-08T02:59:07.006Z,21.76
2023-03-08T03:01:08.385Z,21.77
2023-03-08T03:03:09.756Z,21.78
2023-03-08T03:05:11.357Z,21.77
2023-03-08T03:07:12.691Z,21.77
2023-03-08T03:09:14.092Z,21.76
2023-03-08T03:11:15.609Z,21.74
2023-03-08T03:13:16.932Z,21.75
2023-03-08T03:15:18.313Z,21.70
2023-03-08T03:17:19.649Z,21.66
2023-03-08T03:19:20.990Z,21.60
2023-03-08T03:21:22.301Z,21.57
2023-03-08T03:23:23.617Z,21.51
2023-03-08T03:25:25.064Z,21.47
2023-03-08T03:27:26.398Z,21.44
2023-03-08T03:29:27.750Z,21.41
2023-03-08T03:31:29.137Z,21.37
2023-03-08T03:33:30.570Z,21.35
2023-03-08T03:35:31.900Z,21.34
2023-03-08T03:37:33.876Z,21.35
2023-03-08T03:39:35.235Z,21.33
2023-03-08T03:41:36.584Z,21.38
2023-03-08T03:43:37.929Z,21.25
2023-03-08T03:45:39.331Z,21.09
2023-03-08T03:47:40.719Z,20.97
2023-03-08T03:49:42.106Z,20.87
2023-03-08T03:51:43.438Z,20.79
2023-03-08T03:53:44.765Z,20.77
2023-03-08T03:55:46.145Z,20.97
2023-03-08T03:57:47.510Z,20.92
2023-03-08T03:59:48.854Z,20.88
2023-03-08T04:01:50.179Z,20.78
2023-03-08T04:03:51.536Z,20.79
2023-03-08T04:05:52.930Z,20.83
2023-03-08T04:07:54.301Z,20.68
2023-03-08T04:09:55.752Z,20.84
2023-03-08T04:12:02.468Z,20.98
2023-03-08T04:14:03.836Z,21.09
2023-03-08T04:16:05.257Z,21.16
2023-03-08T04:18:06.684Z,21.22
2023-03-08T04:20:08.068Z,21.29
2023-03-08T04:22:09.402Z,21.34
2023-03-08T04:24:10.733Z,21.39
2023-03-08T04:26:13.374Z,21.42
2023-03-08T04:28:14.705Z,21.41
2023-03-08T04:30:16.045Z,21.40
2023-03-08T04:32:17.422Z,21.40
2023-03-08T04:34:19.168Z,21.40
2023-03-08T04:36:20.506Z,21.39
2023-03-08T04:38:21.876Z,21.39
2023-03-08T04:40:23.233Z,21.41
2023-03-08T04:42:24.684Z,21.37
2023-03-08T04:44:26.063Z,21.32
2023-03-08T04:46:27.496Z,21.30
2023-03-08T04:48:28.904Z,21.24
2023-03-08T04:50:30.283Z,21.20
2023-03-08T04:52:31.633Z,21.17
2023-03-08T04:54:33.186Z,21.13
2023-03-08T04:56:34.565Z,21.12
2023-03-08T04:58:35.903Z,21.08
2023-03-08T05:00:37.359Z,21.03
2023-03-08T05:02:38.779Z,20.98
2023-03-08T05:04:40.512Z,20.94
2023-03-08T05:06:41.882Z,20.84
2023-03-08T05:08:43.232Z,20.78
2023-03-08T05:10:44.556Z,20.70
2023-03-08T05:12:45.891Z,20.64
2023-03-08T05:14:47.238Z,20.57
2023-03-08T05:16:48.680Z,20.52
2023-03-08T05:18:50.072Z,20.49
2023-03-08T05:20:51.597Z,20.47
2023-03-08T05:22:59.297Z,20.47
2023-03-08T05:25:00.794Z,20.47
2023-03-08T05:27:02.262Z,20.47
2023-03-08T05:29:04.025Z,20.48
2023-03-08T05:31:05.403Z,20.48
2023-03-08T05:33:06.744Z,20.51
2023-03-08T05:35:09.269Z,20.56
2023-03-08T05:37:10.612Z,20.61
2023-03-08T05:39:12.013Z,20.70
2023-03-08T05:41:13.364Z,20.75
2023-03-08T05:43:14.695Z,20.82
2023-03-08T05:45:16.110Z,20.90
2023-03-08T05:47:17.451Z,20.98
2023-03-08T05:49:18.835Z,21.03
2023-03-08T05:51:20.197Z,21.09
2023-03-08T05:53:21.587Z,21.13
2023-03-08T05:55:22.926Z,21.18
2023-03-08T05:57:24.289Z,21.21
2023-03-08T05:59:26.828Z,21.29
2023-03-08T06:01:28.194Z,21.31
2023-03-08T06:03:29.577Z,21.28
2023-03-08T06:05:30.989Z,21.28
2023-03-08T06:07:32.377Z,21.30
2023-03-08T06:09:34.048Z,21.29
2023-03-08T06:11:35.396Z,21.27
2023-03-08T06:13:36.781Z,21.31
2023-03-08T06:15:38.110Z,21.28
2023-03-08T06:17:39.488Z,21.26
2023-03-08T06:19:40.889Z,21.24
2023-03-08T06:21:42.277Z,21.20
2023-03-08T06:23:43.751Z,21.18
2023-03-08T06:25:45.148Z,21.14
2023-03-08T06:27:46.713Z,21.11
2023-03-08T06:29:48.947Z,21.10
2023-03-08T06:31:50.276Z,21.04
2023-03-08T06:33:51.621Z,21.00
2023-03-08T06:35:52.985Z,20.97
2023-03-08T06:37:54.338Z,20.94
2023-03-08T06:39:55.686Z,20.90
2023-03-08T06:41:57.014Z,20.88
2023-03-08T06:43:58.357Z,20.86
2023-03-08T06:45:59.865Z,20.84
2023-03-08T06:48:01.286Z,20.83
2023-03-08T06:50:02.614Z,20.79
2023-03-08T06:52:03.949Z,20.78
2023-03-08T06:54:05.267Z,20.77
2023-03-08T06:56:06.817Z,20.74
2023-03-08T06:58:08.136Z,20.73
2023-03-08T07:00:09.885Z,20.72
2023-03-08T07:02:11.323Z,20.71
2023-03-08T07:04:12.716Z,20.70
2023-03-08T07:06:14.124Z,20.70
2023-03-08T07:08:15.469Z,20.69
2023-03-08T07:10:16.953Z,20.71
2023-03-08T07:12:18.293Z,20.74
2023-03-08T07:14:19.669Z,20.79
2023-03-08T07:16:21.188Z,20.87
2023-03-08T07:18:22.616Z,20.93
2023-03-08T07:20:24.022Z,21.01
2023-03-08T07:22:25.361Z,21.04
2023-03-08T07:24:26.725Z,21.10
2023-03-08T07:26:28.077Z,21.14
2023-03-08T07:28:29.417Z,21.18
2023-03-08T07:30:30.805Z,21.22
2023-03-08T07:32:32.290Z,21.26
2023-03-08T07:34:33.676Z,21.26
2023-03-08T07:36:35.032Z,21.27
2023-03-08T07:38:36.420Z,21.27
2023-03-08T07:40:37.753Z,21.31
2023-03-08T07:42:39.084Z,21.31
2023-03-08T07:44:40.432Z,21.36
2023-03-08T07:46:41.768Z,21.32
2023-03-08T07:48:43.280Z,21.30
2023-03-08T07:50:44.597Z,21.28
2023-03-08T07:52:45.937Z,21.25
2023-03-08T07:54:47.300Z,21.22
2023-03-08T07:56:48.682Z,21.19
2023-03-08T07:58:50.072Z,21.15
2023-03-08T08:00:51.400Z,21.11
2023-03-08T08:02:54.176Z,21.08
2023-03-08T08:04:55.708Z,21.06
2023-03-08T08:06:59.148Z,21.02
2023-03-08T08:09:00.490Z,21.00
2023-03-08T08:11:02.243Z,20.99
2023-03-08T08:13:03.631Z,20.98
2023-03-08T08:15:05.050Z,20.96
2023-03-08T08:17:06.411Z,20.96
2023-03-08T08:19:08.712Z,20.97
2023-03-08T08:21:11.406Z,20.95
2023-03-08T08:23:12.832Z,20.95
2023-03-08T08:25:14.165Z,20.93
2023-03-08T08:27:15.536Z,20.93
2023-03-08T08:29:16.860Z,20.92
2023-03-08T08:31:18.225Z,20.90
2023-03-08T08:33:19.579Z,20.91
2023-03-08T08:35:20.990Z,20.93
2023-03-08T08:37:23.021Z,20.97
2023-03-08T08:39:24.405Z,21.01
2023-03-08T08:41:25.862Z,21.05
2023-03-08T08:43:27.193Z,21.12
2023-03-08T08:45:28.660Z,21.19
2023-03-08T08:47:30.205Z,21.25
2023-03-08T08:49:31.862Z,21.30
2023-03-08T08:51:33.202Z,21.31
2023-03-08T08:53:34.536Z,21.34
2023-03-08T08:55:35.930Z,21.41
2023-03-08T08:57:37.336Z,21.43
2023-03-08T08:59:38.709Z,21.47
2023-03-08T09:01:43.904Z,21.47
2023-03-08T09:03:45.507Z,21.51
2023-03-08T09:05:46.854Z,21.48
2023-03-08T09:07:48.177Z,21.45
2023-03-08T09:09:49.542Z,21.37
2023-03-08T09:11:55.278Z,21.36
2023-03-08T09:13:57.108Z,21.30
2023-03-08T09:15:58.448Z,21.22
2023-03-08T09:17:59.944Z,21.18
2023-03-08T09:20:01.288Z,21.13
2023-03-08T09:22:02.699Z,21.08
2023-03-08T09:24:04.109Z,21.05
2023-03-08T09:26:06.259Z,21.01
2023-03-08T09:28:07.639Z,20.95
2023-03-08T09:30:09.204Z,20.90
2023-03-08T09:32:10.664Z,20.88
2023-03-08T09:34:12.118Z,20.81
2023-03-08T09:36:13.443Z,20.77
2023-03-08T09:38:14.778Z,20.74
2023-03-08T09:40:16.094Z,20.76
2023-03-08T09:42:20.579Z,20.75
2023-03-08T09:44:21.950Z,20.70
2023-03-08T09:46:23.323Z,20.70
2023-03-08T09:48:24.775Z,20.73
2023-03-08T09:50:26.175Z,20.74
2023-03-08T09:52:27.573Z,20.78
2023-03-08T09:54:28.960Z,20.80
2023-03-08T09:56:30.310Z,20.83
2023-03-08T09:58:31.720Z,20.87
2023-03-08T10:00:33.122Z,20.93
2023-03-08T10:02:34.498Z,20.98
2023-03-08T10:04:35.968Z,20.14
2023-03-08T10:06:37.313Z,21.04
2023-03-08T10:08:38.688Z,21.06
2023-03-08T10:10:40.110Z,21.11
2023-03-08T10:12:41.495Z,21.10
2023-03-08T10:14:42.851Z,21.13
2023-03-08T10:16:44.282Z,21.14
2023-03-08T10:18:45.711Z,21.15
2023-03-08T10:20:47.078Z,21.15
2023-03-08T10:22:48.680Z,21.17
2023-03-08T10:24:50.041Z,21.17
2023-03-08T10:26:51.356Z,21.14
2023-03-08T10:28:52.705Z,21.15
2023-03-08T10:30:54.449Z,21.13
2023-03-08T10:32:56.599Z,21.10
2023-03-08T10:34:57.982Z,21.08
2023-03-08T10:36:59.346Z,21.08
2023-03-08T10:39:01.128Z,21.06
2023-03-08T10:41:02.906Z,21.03
2023-03-08T10:43:05.524Z,20.98
2023-03-08T10:45:06.869Z,20.96
2023-03-08T10:47:08.206Z,20.93
2023-03-08T10:49:10.024Z,20.91
2023-03-08T10:51:11.374Z,20.89
2023-03-08T10:53:12.738Z,20.85
2023-03-08T10:55:14.105Z,20.83
2023-03-08T10:57:15.445Z,20.83
2023-03-08T10:59:17.185Z,20.79
2023-03-08T11:01:18.516Z,20.76
2023-03-08T11:03:20.065Z,20.74
2023-03-08T11:05:22.125Z,20.71
2023-03-08T11:07:26.458Z,20.69
2023-03-08T11:09:28.053Z,20.66
2023-03-08T11:11:29.386Z,20.65
2023-03-08T11:13:31.773Z,20.64
2023-03-08T11:15:33.221Z,20.64
2023-03-08T11:17:35.643Z,20.62
2023-03-08T11:19:36.968Z,20.64
2023-03-08T11:21:38.299Z,20.63
2023-03-08T11:23:40.227Z,20.64
2023-03-08T11:25:41.564Z,20.67
2023-03-08T11:27:42.929Z,20.69
2023-03-08T11:29:44.284Z,20.71
2023-03-08T11:31:45.706Z,20.73
2023-03-08T11:33:47.135Z,20.77
2023-03-08T11:35:49.900Z,20.81
2023-03-08T11:37:51.257Z,20.83
2023-03-08T11:39:52.598Z,20.87
2023-03-08T11:41:54.020Z,20.89
2023-03-08T11:43:55.367Z,20.91
2023-03-08T11:45:56.852Z,20.96
2023-03-08T11:47:58.196Z,20.98
2023-03-08T11:50:05.877Z,20.97
2023-03-08T11:52:07.342Z,20.99
2023-03-08T11:54:08.680Z,21.02
2023-03-08T11:56:10.029Z,21.01
2023-03-08T11:58:11.413Z,21.00
2023-03-08T12:00:13.257Z,21.01
2023-03-08T12:02:14.797Z,21.02
2023-03-08T12:04:16.228Z,21.05
2023-03-08T12:06:28.377Z,21.04
2023-03-08T12:08:30.761Z,21.03
2023-03-08T12:10:32.288Z,21.02
2023-03-08T12:12:33.676Z,21.00
2023-03-08T12:14:35.018Z,20.98
2023-03-08T12:16:36.450Z,20.98
2023-03-08T12:18:37.877Z,20.94
2023-03-08T12:20:39.265Z,20.93
2023-03-08T12:22:43.823Z,20.91
2023-03-08T12:24:45.207Z,20.87
2023-03-08T12:26:46.576Z,20.85
2023-03-08T12:28:47.940Z,20.84
2023-03-08T12:30:49.312Z,20.81
2023-03-08T12:32:50.931Z,20.78
2023-03-08T12:34:52.408Z,20.77
2023-03-08T12:36:54.037Z,20.75
2023-03-08T12:38:56.706Z,20.73
2023-03-08T12:40:58.069Z,20.71
2023-03-08T12:42:59.440Z,20.69
2023-03-08T12:45:00.816Z,20.70
2023-03-08T12:47:04.023Z,20.68
2023-03-08T12:49:05.752Z,20.67
2023-03-08T12:51:07.163Z,20.66
2023-03-08T12:53:08.537Z,20.64
2023-03-08T12:55:11.569Z,20.63
2023-03-08T12:57:12.899Z,20.64
2023-03-08T12:59:14.298Z,20.64
2023-03-08T13:01:15.754Z,20.65
2023-03-08T13:03:17.140Z,19.92
2023-03-08T13:05:21.946Z,20.68
2023-03-08T13:07:23.312Z,20.69
2023-03-08T13:09:27.408Z,20.72
2023-03-08T13:11:28.777Z,20.77
2023-03-08T13:13:38.803Z,20.78
2023-03-08T13:15:40.800Z,20.80
2023-03-08T13:17:44.817Z,20.82
2023-03-08T13:19:46.222Z,20.83
2023-03-08T13:21:47.598Z,20.85
2023-03-08T13:23:48.984Z,20.89
2023-03-08T13:25:51.540Z,20.90
2023-03-08T13:27:53.059Z,20.90
2023-03-08T13:29:55.012Z,20.91
2023-03-08T13:31:56.445Z,20.90
2023-03-08T13:33:57.814Z,20.93
2023-03-08T13:35:59.341Z,20.93
2023-03-08T13:38:00.722Z,20.98
2023-03-08T13:40:02.421Z,20.98
2023-03-08T13:42:03.774Z,21.00
2023-03-08T13:44:05.158Z,18.07
2023-03-08T13:46:06.555Z,16.74
2023-03-08T13:48:08.815Z,16.56
2023-03-08T13:50:10.196Z,15.90
2023-03-08T13:52:11.582Z,15.57
2023-03-08T13:54:12.951Z,17.44
2023-03-08T13:56:14.336Z,19.10
2023-03-08T13:58:15.718Z,19.96
2023-03-08T14:00:17.099Z,20.44
2023-03-08T14:02:18.637Z,20.41
2023-03-08T14:04:20.063Z,20.40
2023-03-08T14:06:21.418Z,20.44
2023-03-08T14:08:24.927Z,20.50
2023-03-08T14:10:28.152Z,21.08
2023-03-08T14:12:29.632Z,21.62
2023-03-08T14:14:34.003Z,22.18
2023-03-08T14:16:35.386Z,21.85
2023-03-08T14:18:36.896Z,21.41
2023-03-08T14:20:38.363Z,21.24
2023-03-08T14:22:40.551Z,21.18
2023-03-08T14:24:41.969Z,21.17
2023-03-08T14:26:43.414Z,21.18
2023-03-08T14:28:45.435Z,21.18
2023-03-08T14:30:49.663Z,21.21
2023-03-08T14:32:51.157Z,21.26
2023-03-08T14:34:52.688Z,21.29
2023-03-08T14:36:54.020Z,21.30
2023-03-08T14:38:55.421Z,21.30
2023-03-08T14:40:56.785Z,21.35
2023-03-08T14:42:58.226Z,21.36
2023-03-08T14:44:59.812Z,21.38
2023-03-08T14:47:01.129Z,21.41
2023-03-08T14:49:02.843Z,21.41
2023-03-08T14:51:04.969Z,21.36
2023-03-08T14:53:06.301Z,21.35
2023-03-08T14:55:07.636Z,21.35
2023-03-08T14:57:09.037Z,21.34
2023-03-08T14:59:14.004Z,21.32
2023-03-08T15:01:24.072Z,21.66
2023-03-08T15:03:25.485Z,21.55
2023-03-08T15:05:29.642Z,21.56
2023-03-08T15:07:31.342Z,20.97
2023-03-08T15:09:32.754Z,22.29
2023-03-08T15:11:34.144Z,22.49
2023-03-08T15:13:35.558Z,21.95
2023-03-08T15:15:36.924Z,21.73
2023-03-08T15:17:38.268Z,21.60
2023-03-08T15:19:39.618Z,21.55
2023-03-08T15:21:41.065Z,21.53
2023-03-08T15:23:43.428Z,21.52
2023-03-08T15:25:44.856Z,20.73
2023-03-08T15:27:48.215Z,21.50
2023-03-08T15:29:50.132Z,21.50
2023-03-08T15:31:51.456Z,21.49
2023-03-08T15:33:52.847Z,21.47
2023-03-08T15:35:54.261Z,21.46
2023-03-08T15:37:55.614Z,21.45
2023-03-08T15:39:56.985Z,21.43
2023-03-08T15:42:01.521Z,21.44
2023-03-08T15:44:03.214Z,21.43
2023-03-08T15:46:07.445Z,21.43
2023-03-08T15:48:08.773Z,21.43
2023-03-08T15:50:11.084Z,21.43
2023-03-08T15:52:15.558Z,21.49
2023-03-08T15:54:16.966Z,21.57
2023-03-08T15:56:18.321Z,21.60
2023-03-08T15:58:19.724Z,21.65
2023-03-08T16:00:21.117Z,21.72
2023-03-08T16:02:22.764Z,21.80
2023-03-08T16:04:24.207Z,21.86
2023-03-08T16:06:28.229Z,22.44
2023-03-08T16:08:29.713Z,22.45
2023-03-08T16:10:40.549Z,22.13
2023-03-08T16:12:42.204Z,22.22
2023-03-08T16:14:43.640Z,22.75
2023-03-08T16:16:46.185Z,22.98
2023-03-08T16:18:48.787Z,23.02
2023-03-08T16:20:50.305Z,23.16
2023-03-08T16:22:51.803Z,23.18
2023-03-08T16:24:53.294Z,22.80
2023-03-08T16:26:54.665Z,22.67
2023-03-08T16:30:57.409Z,22.47
2023-03-08T16:32:58.754Z,22.47
2023-03-08T16:35:00.230Z,22.48
2023-03-08T16:37:01.594Z,22.50
2023-03-08T16:39:03.080Z,22.47
2023-03-08T16:41:13.573Z,22.45
2023-03-08T16:43:15.852Z,22.41
2023-03-08T16:45:17.240Z,22.45
2023-03-08T16:47:18.727Z,22.52
2023-03-08T16:49:20.380Z,22.55
2023-03-08T16:51:23.091Z,22.54
2023-03-08T16:53:24.658Z,22.53
2023-03-08T16:55:26.462Z,22.50
2023-03-08T16:57:28.109Z,22.50
2023-03-08T16:59:29.588Z,22.47
2023-03-08T17:01:31.674Z,22.49
2023-03-08T17:03:33.148Z,22.50
2023-03-08T17:05:34.680Z,22.50
2023-03-08T17:07:38.737Z,22.49
2023-03-08T17:09:40.201Z,22.49
2023-03-08T17:11:41.545Z,22.49
2023-03-08T17:13:42.871Z,22.50
2023-03-08T17:15:45.202Z,22.52
2023-03-08T17:19:47.924Z,22.55
2023-03-08T17:21:49.309Z,22.50
2023-03-08T17:23:50.691Z,22.48
2023-03-08T17:25:52.589Z,22.45
2023-03-08T17:27:59.820Z,22.43
2023-03-08T17:30:02.598Z,22.23
2023-03-08T17:32:03.972Z,21.84
2023-03-08T17:34:05.384Z,22.32
2023-03-08T17:36:07.146Z,22.85
2023-03-08T17:38:08.586Z,22.99
2023-03-08T17:40:10.607Z,22.88
2023-03-08T17:42:12.204Z,22.89
2023-03-08T17:44:14.025Z,22.88
2023-03-08T17:46:15.452Z,22.72
2023-03-08T17:48:16.916Z,22.65
2023-03-08T17:50:18.444Z,22.61
2023-03-08T17:52:19.785Z,22.62
2023-03-08T17:54:21.253Z,22.79
2023-03-08T17:56:22.592Z,23.12
2023-03-08T17:58:23.989Z,22.82
2023-03-08T18:00:25.446Z,22.66
2023-03-08T18:02:27.002Z,22.62
2023-03-08T18:04:28.470Z,22.66
2023-03-08T18:06:29.943Z,22.64
2023-03-08T18:08:31.321Z,23.25
2023-03-08T18:10:32.759Z,22.97
2023-03-08T18:12:34.095Z,22.96
2023-03-08T18:14:39.985Z,22.87
2023-03-08T18:16:43.107Z,22.88
2023-03-08T18:18:45.750Z,22.89
2023-03-08T18:20:47.133Z,22.85
2023-03-08T18:22:51.396Z,22.95
2023-03-08T18:24:52.777Z,22.88
2023-03-08T18:26:54.208Z,22.76
2023-03-08T18:28:55.645Z,22.73
2023-03-08T18:30:57.024Z,22.77
2023-03-08T18:32:58.395Z,22.55
2023-03-08T18:34:59.922Z,22.14
2023-03-08T18:37:04.000Z,22.30
2023-03-08T18:39:05.697Z,22.49
2023-03-08T18:41:07.127Z,22.69
2023-03-08T18:43:08.462Z,22.79
2023-03-08T18:45:09.885Z,22.64
2023-03-08T18:47:12.257Z,22.56
2023-03-08T18:49:13.874Z,22.51
2023-03-08T18:51:18.199Z,22.22
2023-03-08T18:53:22.448Z,21.97
2023-03-08T18:55:23.878Z,21.81
2023-03-08T18:57:25.293Z,21.68
2023-03-08T18:59:30.282Z,21.95
2023-03-08T19:01:31.651Z,22.18
2023-03-08T19:03:35.826Z,22.22
2023-03-08T19:05:37.142Z,22.24
2023-03-08T19:07:43.852Z,22.43
2023-03-08T19:09:45.981Z,22.37
2023-03-08T19:11:50.358Z,22.35
2023-03-08T19:13:51.723Z,22.75
2023-03-08T19:15:53.287Z,22.73
2023-03-08T19:17:54.651Z,23.00
2023-03-08T19:19:56.026Z,23.18
2023-03-08T19:21:57.354Z,22.98
2023-03-08T19:23:58.705Z,23.02
2023-03-08T19:26:18.875Z,23.07
2023-03-08T19:28:22.947Z,22.92
2023-03-08T19:30:26.419Z,22.62
2023-03-08T19:32:28.096Z,22.43
2023-03-08T19:34:29.463Z,22.66
2023-03-08T19:36:33.397Z,22.77
2023-03-08T19:38:34.845Z,22.80
2023-03-08T19:40:37.822Z,22.82
2023-03-08T19:42:39.177Z,22.88
2023-03-08T19:44:40.558Z,22.86
2023-03-08T19:46:41.897Z,22.84
2023-03-08T19:48:43.260Z,22.82
2023-03-08T19:50:47.750Z,22.72
2023-03-08T19:52:51.794Z,22.71
2023-03-08T19:54:53.186Z,22.71
2023-03-08T19:56:54.573Z,22.71
2023-03-08T19:58:59.762Z,22.66
2023-03-08T20:01:01.144Z,22.63
2023-03-08T20:03:02.668Z,23.00
2023-03-08T20:05:04.064Z,22.86
2023-03-08T20:07:05.406Z,22.80
2023-03-08T20:09:06.787Z,22.97
2023-03-08T20:11:08.161Z,22.91
2023-03-08T20:13:09.485Z,22.81
2023-03-08T20:15:11.203Z,22.47
2023-03-08T20:17:15.556Z,22.06
2023-03-08T20:19:17.702Z,21.88
2023-03-08T20:21:19.073Z,21.77
2023-03-08T20:23:20.464Z,21.73
2023-03-08T20:25:21.868Z,21.68
2023-03-08T20:27:23.240Z,21.66
2023-03-08T20:29:27.295Z,21.66
2023-03-08T20:31:28.632Z,21.65
2023-03-08T20:33:30.016Z,21.62
2023-03-08T20:35:31.379Z,21.63
2023-03-08T20:37:32.830Z,21.61
2023-03-08T20:39:34.241Z,21.62
2023-03-08T20:41:35.569Z,21.63
2023-03-08T20:43:36.994Z,21.63
2023-03-08T20:45:38.366Z,22.00
2023-03-08T20:47:39.736Z,22.31
2023-03-08T20:49:41.109Z,22.47
2023-03-08T20:51:42.468Z,22.60
2023-03-08T20:53:43.895Z,22.69
2023-03-08T20:55:45.248Z,22.73
2023-03-08T20:57:46.640Z,22.72
2023-03-08T20:59:48.285Z,22.82
2023-03-08T21:01:49.639Z,22.89
2023-03-08T21:03:51.106Z,23.00
2023-03-08T21:05:52.439Z,22.92
2023-03-08T21:07:53.860Z,22.88
2023-03-08T21:09:55.548Z,22.89
2023-03-08T21:11:56.873Z,22.87
2023-03-08T21:13:58.230Z,22.87
2023-03-08T21:15:59.676Z,22.96
2023-03-08T21:18:01.016Z,23.01
2023-03-08T21:20:02.329Z,23.02
2023-03-08T21:22:03.756Z,23.05
2023-03-08T21:24:05.234Z,23.52
2023-03-08T21:26:06.602Z,23.35
2023-03-08T21:28:07.952Z,23.30
2023-03-08T21:30:09.321Z,23.65
2023-03-08T21:32:10.794Z,23.25
2023-03-08T21:34:12.192Z,23.13
2023-03-08T21:36:13.520Z,23.31
2023-03-08T21:38:14.896Z,23.34
2023-03-08T21:40:16.244Z,23.03
2023-03-08T21:42:17.579Z,23.07
2023-03-08T21:44:18.980Z,22.92
2023-03-08T21:46:20.427Z,19.33
2023-03-08T21:48:21.937Z,17.74
2023-03-08T21:50:23.306Z,18.70
2023-03-08T21:52:24.670Z,19.98
2023-03-08T21:54:26.057Z,20.68
2023-03-08T21:56:27.386Z,21.02
2023-03-08T21:58:29.484Z,21.18
2023-03-08T22:00:30.931Z,21.26
2023-03-08T22:02:32.282Z,21.35
2023-03-08T22:04:39.394Z,21.46
2023-03-08T22:06:40.771Z,20.83
2023-03-08T22:08:42.108Z,21.66
2023-03-08T22:10:43.528Z,21.75
2023-03-08T22:12:44.855Z,21.87
2023-03-08T22:14:46.169Z,21.93
2023-03-08T22:16:47.578Z,22.03
2023-03-08T22:18:48.897Z,22.07
2023-03-08T22:20:50.328Z,22.10
2023-03-08T22:22:51.669Z,22.10
2023-03-08T22:24:53.001Z,22.12
2023-03-08T22:26:54.380Z,22.13
2023-03-08T22:28:55.844Z,22.11
2023-03-08T22:30:57.188Z,22.12
2023-03-08T22:32:58.567Z,22.08
2023-03-08T22:34:59.898Z,22.02
2023-03-08T22:37:01.241Z,21.96
2023-03-08T22:39:05.268Z,21.91
2023-03-08T22:41:06.588Z,21.90
2023-03-08T22:43:08.946Z,21.85
2023-03-08T22:45:10.674Z,21.83
2023-03-08T22:47:12.027Z,21.77
2023-03-08T22:49:14.470Z,21.72
2023-03-08T22:51:17.408Z,21.66
2023-03-08T22:53:18.766Z,21.63
2023-03-08T22:55:20.097Z,21.60
2023-03-08T22:57:21.520Z,21.59
2023-03-08T22:59:23.201Z,21.61
2023-03-08T23:01:24.679Z,21.60
2023-03-08T23:03:26.177Z,21.66
2023-03-08T23:05:27.621Z,21.67
2023-03-08T23:07:28.940Z,21.65
2023-03-08T23:09:30.630Z,21.64
2023-03-08T23:11:32.022Z,21.62
2023-03-08T23:13:34.721Z,21.59
2023-03-08T23:15:36.321Z,21.57
2023-03-08T23:17:37.671Z,21.54
2023-03-08T23:19:39.063Z,21.54
2023-03-08T23:21:40.505Z,21.52
2023-03-08T23:23:41.878Z,21.52
2023-03-08T23:25:44.090Z,21.51
2023-03-08T23:27:45.527Z,21.51
2023-03-08T23:29:46.897Z,21.49
2023-03-08T23:31:48.319Z,21.48
2023-03-08T23:33:49.688Z,21.47
2023-03-08T23:35:51.094Z,21.47
2023-03-08T23:37:52.472Z,21.47
2023-03-08T23:39:53.785Z,21.48
2023-03-08T23:41:55.166Z,21.50
2023-03-08T23:43:56.556Z,21.60
2023-03-08T23:45:58.021Z,21.44
2023-03-08T23:48:01.023Z,21.42
2023-03-08T23:50:03.517Z,21.50
2023-03-08T23:52:04.879Z,21.57
2023-03-08T23:54:06.329Z,21.64
2023-03-08T23:56:07.674Z,21.67
2023-03-08T23:58:09.020Z,21.70
